sensor_id;sensor_type;location;lat;lon;timestamp;temperature;humidity
42683;DHT22;28293;50.930;3.464;2024-02-23T00:01:57;6.10;88.30
42683;DHT22;28293;50.930;3.464;2024-02-23T00:04:22;6.10;87.80
42683;DHT22;28293;50.930;3.464;2024-02-23T00:06:48;6.10;87.90
42683;DHT22;28293;50.930;3.464;2024-02-23T00:09:14;6.20;88.10
42683;DHT22;28293;50.930;3.464;2024-02-23T00:11:40;6.20;88.00
42683;DHT22;28293;50.930;3.464;2024-02-23T00:14:12;6.20;87.90
42683;DHT22;28293;50.930;3.464;2024-02-23T00:16:41;6.20;87.90
42683;DHT22;28293;50.930;3.464;2024-02-23T00:19:10;6.30;87.80
42683;DHT22;28293;50.930;3.464;2024-02-23T00:21:37;6.20;87.90
42683;DHT22;28293;50.930;3.464;2024-02-23T00:24:03;6.10;88.10
42683;DHT22;28293;50.930;3.464;2024-02-23T00:26:28;6.10;88.30
42683;DHT22;28293;50.930;3.464;2024-02-23T00:28:55;6.10;88.70
42683;DHT22;28293;50.930;3.464;2024-02-23T00:31:21;6.10;89.00
42683;DHT22;28293;50.930;3.464;2024-02-23T00:33:47;6.00;89.30
42683;DHT22;28293;50.930;3.464;2024-02-23T00:36:13;6.10;89.50
42683;DHT22;28293;50.930;3.464;2024-02-23T00:38:38;6.00;89.80
42683;DHT22;28293;50.930;3.464;2024-02-23T00:41:04;6.00;89.90
42683;DHT22;28293;50.930;3.464;2024-02-23T00:43:36;6.00;90.00
42683;DHT22;28293;50.930;3.464;2024-02-23T00:46:03;6.00;90.00
42683;DHT22;28293;50.930;3.464;2024-02-23T00:48:30;6.00;90.30
42683;DHT22;28293;50.930;3.464;2024-02-23T00:50:55;6.00;90.40
42683;DHT22;28293;50.930;3.464;2024-02-23T00:53:21;6.00;90.50
42683;DHT22;28293;50.930;3.464;2024-02-23T00:55:47;6.00;90.50
42683;DHT22;28293;50.930;3.464;2024-02-23T00:58:13;5.90;90.60
42683;DHT22;28293;50.930;3.464;2024-02-23T01:00:39;5.80;90.60
42683;DHT22;28293;50.930;3.464;2024-02-23T01:03:04;5.80;90.80
42683;DHT22;28293;50.930;3.464;2024-02-23T01:05:30;5.80;91.00
42683;DHT22;28293;50.930;3.464;2024-02-23T01:07:56;5.70;91.20
42683;DHT22;28293;50.930;3.464;2024-02-23T01:10:22;5.70;91.10
42683;DHT22;28293;50.930;3.464;2024-02-23T01:12:47;5.70;91.10
42683;DHT22;28293;50.930;3.464;2024-02-23T01:15:13;5.70;91.00
42683;DHT22;28293;50.930;3.464;2024-02-23T01:17:38;5.60;91.00
42683;DHT22;28293;50.930;3.464;2024-02-23T01:20:04;5.60;91.00
42683;DHT22;28293;50.930;3.464;2024-02-23T01:22:30;5.60;91.00
42683;DHT22;28293;50.930;3.464;2024-02-23T01:24:56;5.60;91.00
42683;DHT22;28293;50.930;3.464;2024-02-23T01:27:21;5.60;90.90
42683;DHT22;28293;50.930;3.464;2024-02-23T01:29:47;5.60;90.80
42683;DHT22;28293;50.930;3.464;2024-02-23T01:32:13;5.60;90.70
42683;DHT22;28293;50.930;3.464;2024-02-23T01:34:38;5.60;90.70
42683;DHT22;28293;50.930;3.464;2024-02-23T01:37:04;5.70;90.60
42683;DHT22;28293;50.930;3.464;2024-02-23T01:39:30;5.60;90.40
42683;DHT22;28293;50.930;3.464;2024-02-23T01:41:55;5.60;90.50
42683;DHT22;28293;50.930;3.464;2024-02-23T01:44:21;5.60;90.50
42683;DHT22;28293;50.930;3.464;2024-02-23T01:46:47;5.60;90.60
42683;DHT22;28293;50.930;3.464;2024-02-23T01:49:13;5.60;90.70
42683;DHT22;28293;50.930;3.464;2024-02-23T01:51:39;5.60;90.90
42683;DHT22;28293;50.930;3.464;2024-02-23T01:54:05;5.60;91.20
42683;DHT22;28293;50.930;3.464;2024-02-23T01:56:32;5.60;91.30
42683;DHT22;28293;50.930;3.464;2024-02-23T01:58:59;5.60;91.20
42683;DHT22;28293;50.930;3.464;2024-02-23T02:01:25;5.70;91.30
42683;DHT22;28293;50.930;3.464;2024-02-23T02:03:51;5.70;91.30
42683;DHT22;28293;50.930;3.464;2024-02-23T02:06:17;5.70;91.40
42683;DHT22;28293;50.930;3.464;2024-02-23T02:08:43;5.70;91.40
42683;DHT22;28293;50.930;3.464;2024-02-23T02:11:09;5.70;91.50
42683;DHT22;28293;50.930;3.464;2024-02-23T02:13:35;5.60;91.50
42683;DHT22;28293;50.930;3.464;2024-02-23T02:16:01;5.60;91.70
42683;DHT22;28293;50.930;3.464;2024-02-23T02:18:27;5.60;91.80
42683;DHT22;28293;50.930;3.464;2024-02-23T02:20:57;5.60;91.70
42683;DHT22;28293;50.930;3.464;2024-02-23T02:23:23;5.70;91.70
42683;DHT22;28293;50.930;3.464;2024-02-23T02:25:56;5.60;91.60
42683;DHT22;28293;50.930;3.464;2024-02-23T02:28:23;5.60;91.60
42683;DHT22;28293;50.930;3.464;2024-02-23T02:30:50;5.60;91.60
42683;DHT22;28293;50.930;3.464;2024-02-23T02:33:16;5.60;91.60
42683;DHT22;28293;50.930;3.464;2024-02-23T02:35:41;5.60;91.70
42683;DHT22;28293;50.930;3.464;2024-02-23T02:38:07;5.60;91.70
42683;DHT22;28293;50.930;3.464;2024-02-23T02:40:33;5.60;91.60
42683;DHT22;28293;50.930;3.464;2024-02-23T02:42:58;5.60;91.70
42683;DHT22;28293;50.930;3.464;2024-02-23T02:45:24;5.60;91.70
42683;DHT22;28293;50.930;3.464;2024-02-23T02:47:50;5.60;91.70
42683;DHT22;28293;50.930;3.464;2024-02-23T02:50:16;5.60;91.60
42683;DHT22;28293;50.930;3.464;2024-02-23T02:52:42;5.60;91.60
42683;DHT22;28293;50.930;3.464;2024-02-23T02:55:08;5.70;91.60
42683;DHT22;28293;50.930;3.464;2024-02-23T02:57:33;5.70;91.60
42683;DHT22;28293;50.930;3.464;2024-02-23T03:00:02;5.70;91.60
42683;DHT22;28293;50.930;3.464;2024-02-23T03:02:33;5.70;91.50
42683;DHT22;28293;50.930;3.464;2024-02-23T03:04:59;5.70;91.60
42683;DHT22;28293;50.930;3.464;2024-02-23T03:07:24;5.70;91.60
42683;DHT22;28293;50.930;3.464;2024-02-23T03:09:50;5.70;91.60
42683;DHT22;28293;50.930;3.464;2024-02-23T03:12:16;5.80;91.50
42683;DHT22;28293;50.930;3.464;2024-02-23T03:14:43;5.80;91.50
42683;DHT22;28293;50.930;3.464;2024-02-23T03:17:09;5.70;91.60
42683;DHT22;28293;50.930;3.464;2024-02-23T03:19:35;5.80;91.60
42683;DHT22;28293;50.930;3.464;2024-02-23T03:22:00;5.80;91.60
42683;DHT22;28293;50.930;3.464;2024-02-23T03:24:26;5.80;91.60
42683;DHT22;28293;50.930;3.464;2024-02-23T03:26:52;5.90;91.60
42683;DHT22;28293;50.930;3.464;2024-02-23T03:29:17;5.90;91.60
42683;DHT22;28293;50.930;3.464;2024-02-23T03:31:43;5.80;91.60
42683;DHT22;28293;50.930;3.464;2024-02-23T03:34:08;5.70;91.60
42683;DHT22;28293;50.930;3.464;2024-02-23T03:36:34;5.70;91.60
42683;DHT22;28293;50.930;3.464;2024-02-23T03:39:00;5.70;91.60
42683;DHT22;28293;50.930;3.464;2024-02-23T03:41:26;5.70;91.70
42683;DHT22;28293;50.930;3.464;2024-02-23T03:43:52;5.70;91.70
42683;DHT22;28293;50.930;3.464;2024-02-23T03:46:17;5.80;91.70
42683;DHT22;28293;50.930;3.464;2024-02-23T03:48:45;5.80;91.70
42683;DHT22;28293;50.930;3.464;2024-02-23T03:51:10;5.80;91.60
42683;DHT22;28293;50.930;3.464;2024-02-23T03:53:36;5.80;91.50
42683;DHT22;28293;50.930;3.464;2024-02-23T03:56:02;5.80;91.50
42683;DHT22;28293;50.930;3.464;2024-02-23T03:58:28;5.80;91.30
42683;DHT22;28293;50.930;3.464;2024-02-23T04:00:54;5.80;91.30
42683;DHT22;28293;50.930;3.464;2024-02-23T04:03:20;5.80;91.20
42683;DHT22;28293;50.930;3.464;2024-02-23T04:05:45;5.80;91.20
42683;DHT22;28293;50.930;3.464;2024-02-23T04:08:11;5.80;90.80
42683;DHT22;28293;50.930;3.464;2024-02-23T04:10:36;5.80;90.80
42683;DHT22;28293;50.930;3.464;2024-02-23T04:13:02;5.80;90.40
42683;DHT22;28293;50.930;3.464;2024-02-23T04:15:28;5.80;90.40
42683;DHT22;28293;50.930;3.464;2024-02-23T04:17:54;5.80;90.30
42683;DHT22;28293;50.930;3.464;2024-02-23T04:20:19;5.80;90.30
42683;DHT22;28293;50.930;3.464;2024-02-23T04:22:45;5.70;90.40
42683;DHT22;28293;50.930;3.464;2024-02-23T04:25:11;5.70;90.30
42683;DHT22;28293;50.930;3.464;2024-02-23T04:27:37;5.70;90.30
42683;DHT22;28293;50.930;3.464;2024-02-23T04:30:03;5.60;90.30
42683;DHT22;28293;50.930;3.464;2024-02-23T04:32:29;5.60;90.40
42683;DHT22;28293;50.930;3.464;2024-02-23T04:34:55;5.60;90.50
42683;DHT22;28293;50.930;3.464;2024-02-23T04:37:21;5.60;90.40
42683;DHT22;28293;50.930;3.464;2024-02-23T04:39:47;5.50;90.60
42683;DHT22;28293;50.930;3.464;2024-02-23T04:42:13;5.60;90.60
42683;DHT22;28293;50.930;3.464;2024-02-23T04:44:40;5.50;90.50
42683;DHT22;28293;50.930;3.464;2024-02-23T04:47:06;5.50;90.60
42683;DHT22;28293;50.930;3.464;2024-02-23T04:49:32;5.50;90.50
42683;DHT22;28293;50.930;3.464;2024-02-23T04:51:57;5.50;90.70
42683;DHT22;28293;50.930;3.464;2024-02-23T04:54:23;5.50;90.70
42683;DHT22;28293;50.930;3.464;2024-02-23T04:56:49;5.40;90.70
42683;DHT22;28293;50.930;3.464;2024-02-23T04:59:15;5.40;90.70
42683;DHT22;28293;50.930;3.464;2024-02-23T05:01:41;5.40;90.70
42683;DHT22;28293;50.930;3.464;2024-02-23T05:04:08;5.40;90.70
42683;DHT22;28293;50.930;3.464;2024-02-23T05:06:33;5.40;90.60
42683;DHT22;28293;50.930;3.464;2024-02-23T05:08:59;5.40;90.60
42683;DHT22;28293;50.930;3.464;2024-02-23T05:11:25;5.40;90.50
42683;DHT22;28293;50.930;3.464;2024-02-23T05:13:50;5.50;90.50
42683;DHT22;28293;50.930;3.464;2024-02-23T05:16:16;5.50;90.50
42683;DHT22;28293;50.930;3.464;2024-02-23T05:18:42;5.50;90.50
42683;DHT22;28293;50.930;3.464;2024-02-23T05:21:09;5.50;90.40
42683;DHT22;28293;50.930;3.464;2024-02-23T05:23:35;5.60;90.30
42683;DHT22;28293;50.930;3.464;2024-02-23T05:26:01;5.60;90.20
42683;DHT22;28293;50.930;3.464;2024-02-23T05:28:27;5.60;90.20
42683;DHT22;28293;50.930;3.464;2024-02-23T05:30:54;5.60;90.10
42683;DHT22;28293;50.930;3.464;2024-02-23T05:33:19;5.60;90.00
42683;DHT22;28293;50.930;3.464;2024-02-23T05:35:48;5.60;90.00
42683;DHT22;28293;50.930;3.464;2024-02-23T05:38:17;5.60;89.90
42683;DHT22;28293;50.930;3.464;2024-02-23T05:40:43;5.60;89.80
42683;DHT22;28293;50.930;3.464;2024-02-23T05:43:09;5.70;89.80
42683;DHT22;28293;50.930;3.464;2024-02-23T05:45:34;5.70;89.60
42683;DHT22;28293;50.930;3.464;2024-02-23T05:48:00;5.70;89.60
42683;DHT22;28293;50.930;3.464;2024-02-23T05:50:26;5.70;89.60
42683;DHT22;28293;50.930;3.464;2024-02-23T05:52:51;5.70;89.50
42683;DHT22;28293;50.930;3.464;2024-02-23T05:55:18;5.70;89.50
42683;DHT22;28293;50.930;3.464;2024-02-23T05:57:44;5.70;89.60
42683;DHT22;28293;50.930;3.464;2024-02-23T06:00:10;5.70;89.60
42683;DHT22;28293;50.930;3.464;2024-02-23T06:02:37;5.80;89.70
42683;DHT22;28293;50.930;3.464;2024-02-23T06:05:02;5.80;89.60
42683;DHT22;28293;50.930;3.464;2024-02-23T06:07:29;5.70;89.50
42683;DHT22;28293;50.930;3.464;2024-02-23T06:09:57;5.80;89.50
42683;DHT22;28293;50.930;3.464;2024-02-23T06:12:24;5.80;89.50
42683;DHT22;28293;50.930;3.464;2024-02-23T06:14:51;5.80;89.60
42683;DHT22;28293;50.930;3.464;2024-02-23T06:17:16;5.90;89.80
42683;DHT22;28293;50.930;3.464;2024-02-23T06:19:43;5.80;89.50
42683;DHT22;28293;50.930;3.464;2024-02-23T06:22:09;5.90;89.70
42683;DHT22;28293;50.930;3.464;2024-02-23T06:24:38;5.90;89.60
42683;DHT22;28293;50.930;3.464;2024-02-23T06:27:03;5.90;89.80
42683;DHT22;28293;50.930;3.464;2024-02-23T06:29:29;5.90;89.90
42683;DHT22;28293;50.930;3.464;2024-02-23T06:31:55;5.90;90.20
42683;DHT22;28293;50.930;3.464;2024-02-23T06:34:21;5.90;90.20
42683;DHT22;28293;50.930;3.464;2024-02-23T06:36:47;6.00;90.20
42683;DHT22;28293;50.930;3.464;2024-02-23T06:39:13;6.00;90.10
42683;DHT22;28293;50.930;3.464;2024-02-23T06:41:39;6.00;90.00
42683;DHT22;28293;50.930;3.464;2024-02-23T06:44:05;6.10;90.00
42683;DHT22;28293;50.930;3.464;2024-02-23T06:46:30;6.10;89.80
42683;DHT22;28293;50.930;3.464;2024-02-23T06:48:56;6.10;89.70
42683;DHT22;28293;50.930;3.464;2024-02-23T06:51:22;6.10;89.60
42683;DHT22;28293;50.930;3.464;2024-02-23T06:53:47;6.20;89.60
42683;DHT22;28293;50.930;3.464;2024-02-23T06:56:13;6.10;89.70
42683;DHT22;28293;50.930;3.464;2024-02-23T06:58:39;6.10;89.70
42683;DHT22;28293;50.930;3.464;2024-02-23T07:01:05;6.10;89.90
42683;DHT22;28293;50.930;3.464;2024-02-23T07:03:32;6.10;89.90
42683;DHT22;28293;50.930;3.464;2024-02-23T07:05:58;6.10;89.90
42683;DHT22;28293;50.930;3.464;2024-02-23T07:08:24;6.10;89.80
42683;DHT22;28293;50.930;3.464;2024-02-23T07:10:50;6.20;89.90
42683;DHT22;28293;50.930;3.464;2024-02-23T07:13:16;6.10;90.40
42683;DHT22;28293;50.930;3.464;2024-02-23T07:15:43;6.10;90.50
42683;DHT22;28293;50.930;3.464;2024-02-23T07:18:09;6.10;90.70
42683;DHT22;28293;50.930;3.464;2024-02-23T07:20:36;6.10;90.60
42683;DHT22;28293;50.930;3.464;2024-02-23T07:23:01;6.10;90.40
42683;DHT22;28293;50.930;3.464;2024-02-23T07:25:27;6.10;90.40
42683;DHT22;28293;50.930;3.464;2024-02-23T07:27:53;6.20;90.30
42683;DHT22;28293;50.930;3.464;2024-02-23T07:30:18;6.20;90.30
42683;DHT22;28293;50.930;3.464;2024-02-23T07:32:44;6.20;90.20
42683;DHT22;28293;50.930;3.464;2024-02-23T07:35:11;6.20;90.30
42683;DHT22;28293;50.930;3.464;2024-02-23T07:37:37;6.20;90.50
42683;DHT22;28293;50.930;3.464;2024-02-23T07:40:03;6.30;90.30
42683;DHT22;28293;50.930;3.464;2024-02-23T07:42:32;6.30;90.10
42683;DHT22;28293;50.930;3.464;2024-02-23T07:44:58;6.40;90.00
42683;DHT22;28293;50.930;3.464;2024-02-23T07:47:24;6.40;89.70
42683;DHT22;28293;50.930;3.464;2024-02-23T07:49:52;6.40;89.70
42683;DHT22;28293;50.930;3.464;2024-02-23T07:52:18;6.50;89.70
42683;DHT22;28293;50.930;3.464;2024-02-23T07:54:44;6.50;89.60
42683;DHT22;28293;50.930;3.464;2024-02-23T07:57:10;6.50;89.70
42683;DHT22;28293;50.930;3.464;2024-02-23T07:59:36;6.50;89.50
42683;DHT22;28293;50.930;3.464;2024-02-23T08:02:01;6.50;89.40
42683;DHT22;28293;50.930;3.464;2024-02-23T08:04:27;6.60;89.50
42683;DHT22;28293;50.930;3.464;2024-02-23T08:06:52;6.60;89.30
42683;DHT22;28293;50.930;3.464;2024-02-23T08:09:18;6.60;89.30
42683;DHT22;28293;50.930;3.464;2024-02-23T08:11:44;6.60;88.90
42683;DHT22;28293;50.930;3.464;2024-02-23T08:14:11;6.70;89.20
42683;DHT22;28293;50.930;3.464;2024-02-23T08:16:37;6.80;88.80
42683;DHT22;28293;50.930;3.464;2024-02-23T08:19:03;6.80;88.80
42683;DHT22;28293;50.930;3.464;2024-02-23T08:21:28;6.90;89.00
42683;DHT22;28293;50.930;3.464;2024-02-23T08:23:54;6.80;88.70
42683;DHT22;28293;50.930;3.464;2024-02-23T08:26:20;6.90;88.80
42683;DHT22;28293;50.930;3.464;2024-02-23T08:28:45;6.90;88.90
42683;DHT22;28293;50.930;3.464;2024-02-23T08:31:11;6.90;88.90
42683;DHT22;28293;50.930;3.464;2024-02-23T08:33:36;6.90;88.80
42683;DHT22;28293;50.930;3.464;2024-02-23T08:36:02;7.00;88.80
42683;DHT22;28293;50.930;3.464;2024-02-23T08:38:31;7.00;89.00
42683;DHT22;28293;50.930;3.464;2024-02-23T08:40:57;7.10;88.90
42683;DHT22;28293;50.930;3.464;2024-02-23T08:43:24;7.10;88.90
42683;DHT22;28293;50.930;3.464;2024-02-23T08:45:50;7.10;89.10
42683;DHT22;28293;50.930;3.464;2024-02-23T08:48:15;7.20;89.20
42683;DHT22;28293;50.930;3.464;2024-02-23T08:50:41;7.20;88.90
42683;DHT22;28293;50.930;3.464;2024-02-23T08:53:07;7.30;88.80
42683;DHT22;28293;50.930;3.464;2024-02-23T08:55:32;7.30;88.70
42683;DHT22;28293;50.930;3.464;2024-02-23T08:57:58;7.30;88.50
42683;DHT22;28293;50.930;3.464;2024-02-23T09:00:24;7.20;88.70
42683;DHT22;28293;50.930;3.464;2024-02-23T09:02:50;7.20;88.60
42683;DHT22;28293;50.930;3.464;2024-02-23T09:05:16;7.10;88.70
42683;DHT22;28293;50.930;3.464;2024-02-23T09:07:42;7.10;88.40
42683;DHT22;28293;50.930;3.464;2024-02-23T09:10:08;7.20;88.70
42683;DHT22;28293;50.930;3.464;2024-02-23T09:12:34;7.30;88.40
42683;DHT22;28293;50.930;3.464;2024-02-23T09:14:59;7.20;88.50
42683;DHT22;28293;50.930;3.464;2024-02-23T09:17:25;7.20;88.50
42683;DHT22;28293;50.930;3.464;2024-02-23T09:19:51;7.20;88.40
42683;DHT22;28293;50.930;3.464;2024-02-23T09:22:17;7.20;88.70
42683;DHT22;28293;50.930;3.464;2024-02-23T09:24:43;7.20;88.60
42683;DHT22;28293;50.930;3.464;2024-02-23T09:27:08;7.20;89.20
42683;DHT22;28293;50.930;3.464;2024-02-23T09:29:34;7.20;89.70
42683;DHT22;28293;50.930;3.464;2024-02-23T09:32:00;7.20;90.20
42683;DHT22;28293;50.930;3.464;2024-02-23T09:34:26;7.20;90.40
42683;DHT22;28293;50.930;3.464;2024-02-23T09:36:52;7.20;90.50
42683;DHT22;28293;50.930;3.464;2024-02-23T09:39:18;7.30;90.50
42683;DHT22;28293;50.930;3.464;2024-02-23T09:41:43;7.40;90.30
42683;DHT22;28293;50.930;3.464;2024-02-23T09:44:09;7.30;90.00
42683;DHT22;28293;50.930;3.464;2024-02-23T09:46:40;7.30;90.10
42683;DHT22;28293;50.930;3.464;2024-02-23T09:49:07;7.30;89.90
42683;DHT22;28293;50.930;3.464;2024-02-23T09:51:34;7.30;90.10
42683;DHT22;28293;50.930;3.464;2024-02-23T09:54:01;7.30;90.10
42683;DHT22;28293;50.930;3.464;2024-02-23T09:56:28;7.40;90.20
42683;DHT22;28293;50.930;3.464;2024-02-23T09:58:58;7.50;90.00
42683;DHT22;28293;50.930;3.464;2024-02-23T10:01:29;7.60;89.80
42683;DHT22;28293;50.930;3.464;2024-02-23T10:03:57;7.60;89.40
42683;DHT22;28293;50.930;3.464;2024-02-23T10:06:27;7.80;89.10
42683;DHT22;28293;50.930;3.464;2024-02-23T10:08:53;7.80;89.20
42683;DHT22;28293;50.930;3.464;2024-02-23T10:11:23;7.90;89.00
42683;DHT22;28293;50.930;3.464;2024-02-23T10:13:49;8.00;88.90
42683;DHT22;28293;50.930;3.464;2024-02-23T10:16:15;8.10;88.60
42683;DHT22;28293;50.930;3.464;2024-02-23T10:18:41;8.10;88.20
42683;DHT22;28293;50.930;3.464;2024-02-23T10:21:07;8.20;87.90
42683;DHT22;28293;50.930;3.464;2024-02-23T10:23:32;8.10;87.70
42683;DHT22;28293;50.930;3.464;2024-02-23T10:25:58;8.30;87.90
42683;DHT22;28293;50.930;3.464;2024-02-23T10:28:24;8.30;87.00
42683;DHT22;28293;50.930;3.464;2024-02-23T10:30:50;8.40;87.00
42683;DHT22;28293;50.930;3.464;2024-02-23T10:33:15;8.40;86.50
42683;DHT22;28293;50.930;3.464;2024-02-23T10:35:44;8.40;86.40
42683;DHT22;28293;50.930;3.464;2024-02-23T10:38:12;8.30;86.20
42683;DHT22;28293;50.930;3.464;2024-02-23T10:40:43;8.40;86.20
42683;DHT22;28293;50.930;3.464;2024-02-23T10:43:12;8.30;86.30
42683;DHT22;28293;50.930;3.464;2024-02-23T10:45:41;8.30;86.30
42683;DHT22;28293;50.930;3.464;2024-02-23T10:48:10;8.30;86.10
42683;DHT22;28293;50.930;3.464;2024-02-23T10:50:37;8.20;86.20
42683;DHT22;28293;50.930;3.464;2024-02-23T10:53:04;8.20;86.40
42683;DHT22;28293;50.930;3.464;2024-02-23T10:55:32;8.10;86.40
42683;DHT22;28293;50.930;3.464;2024-02-23T10:57:59;8.10;86.40
42683;DHT22;28293;50.930;3.464;2024-02-23T11:00:25;8.00;87.00
42683;DHT22;28293;50.930;3.464;2024-02-23T11:02:52;7.90;87.50
42683;DHT22;28293;50.930;3.464;2024-02-23T11:05:19;8.00;87.50
42683;DHT22;28293;50.930;3.464;2024-02-23T11:07:48;8.10;87.50
42683;DHT22;28293;50.930;3.464;2024-02-23T11:10:17;8.20;87.00
42683;DHT22;28293;50.930;3.464;2024-02-23T11:12:44;8.20;87.10
42683;DHT22;28293;50.930;3.464;2024-02-23T11:15:30;8.20;87.40
42683;DHT22;28293;50.930;3.464;2024-02-23T11:17:56;8.20;87.60
42683;DHT22;28293;50.930;3.464;2024-02-23T11:20:21;8.10;87.40
42683;DHT22;28293;50.930;3.464;2024-02-23T11:22:52;8.10;87.80
42683;DHT22;28293;50.930;3.464;2024-02-23T11:25:19;8.10;88.10
42683;DHT22;28293;50.930;3.464;2024-02-23T11:27:49;8.00;88.80
42683;DHT22;28293;50.930;3.464;2024-02-23T11:30:16;8.00;88.90
42683;DHT22;28293;50.930;3.464;2024-02-23T11:32:47;8.10;89.00
42683;DHT22;28293;50.930;3.464;2024-02-23T11:35:16;8.10;89.20
42683;DHT22;28293;50.930;3.464;2024-02-23T11:37:55;8.20;88.80
42683;DHT22;28293;50.930;3.464;2024-02-23T11:40:31;8.30;88.90
42683;DHT22;28293;50.930;3.464;2024-02-23T11:42:57;8.50;88.60
42683;DHT22;28293;50.930;3.464;2024-02-23T11:45:28;8.60;88.50
42683;DHT22;28293;50.930;3.464;2024-02-23T11:47:54;8.60;87.90
42683;DHT22;28293;50.930;3.464;2024-02-23T11:50:20;8.60;88.20
42683;DHT22;28293;50.930;3.464;2024-02-23T11:52:46;8.70;88.00
42683;DHT22;28293;50.930;3.464;2024-02-23T11:55:12;8.70;87.70
42683;DHT22;28293;50.930;3.464;2024-02-23T11:57:44;8.80;87.60
42683;DHT22;28293;50.930;3.464;2024-02-23T12:00:11;8.70;87.40
42683;DHT22;28293;50.930;3.464;2024-02-23T12:02:36;8.80;87.40
42683;DHT22;28293;50.930;3.464;2024-02-23T12:05:02;8.70;87.40
42683;DHT22;28293;50.930;3.464;2024-02-23T12:07:29;8.80;87.70
42683;DHT22;28293;50.930;3.464;2024-02-23T12:09:56;9.00;87.20
42683;DHT22;28293;50.930;3.464;2024-02-23T12:12:23;9.10;87.20
42683;DHT22;28293;50.930;3.464;2024-02-23T12:14:49;9.30;87.10
42683;DHT22;28293;50.930;3.464;2024-02-23T12:17:15;9.60;86.00
42683;DHT22;28293;50.930;3.464;2024-02-23T12:19:40;9.70;85.20
42683;DHT22;28293;50.930;3.464;2024-02-23T12:22:06;9.90;84.80
42683;DHT22;28293;50.930;3.464;2024-02-23T12:24:32;10.20;84.00
42683;DHT22;28293;50.930;3.464;2024-02-23T12:26:59;10.60;82.80
42683;DHT22;28293;50.930;3.464;2024-02-23T12:29:25;10.80;82.00
42683;DHT22;28293;50.930;3.464;2024-02-23T12:31:50;10.80;81.60
42683;DHT22;28293;50.930;3.464;2024-02-23T12:34:18;10.60;81.60
42683;DHT22;28293;50.930;3.464;2024-02-23T12:36:46;10.50;82.00
42683;DHT22;28293;50.930;3.464;2024-02-23T12:39:12;10.60;82.70
42683;DHT22;28293;50.930;3.464;2024-02-23T12:41:37;10.40;82.10
42683;DHT22;28293;50.930;3.464;2024-02-23T12:44:03;10.30;82.10
42683;DHT22;28293;50.930;3.464;2024-02-23T12:46:28;10.40;81.70
42683;DHT22;28293;50.930;3.464;2024-02-23T12:48:54;10.60;81.80
42683;DHT22;28293;50.930;3.464;2024-02-23T12:51:25;10.50;80.90
42683;DHT22;28293;50.930;3.464;2024-02-23T12:53:51;10.30;81.50
42683;DHT22;28293;50.930;3.464;2024-02-23T12:56:17;10.40;82.00
42683;DHT22;28293;50.930;3.464;2024-02-23T12:58:44;10.50;82.20
42683;DHT22;28293;50.930;3.464;2024-02-23T13:01:10;10.70;81.80
42683;DHT22;28293;50.930;3.464;2024-02-23T13:03:37;10.80;81.30
42683;DHT22;28293;50.930;3.464;2024-02-23T13:06:03;10.90;80.50
42683;DHT22;28293;50.930;3.464;2024-02-23T13:08:29;10.90;80.10
42683;DHT22;28293;50.930;3.464;2024-02-23T13:10:56;10.90;80.30
42683;DHT22;28293;50.930;3.464;2024-02-23T13:13:22;11.00;80.30
42683;DHT22;28293;50.930;3.464;2024-02-23T13:15:49;10.90;79.90
42683;DHT22;28293;50.930;3.464;2024-02-23T13:18:15;10.90;79.80
42683;DHT22;28293;50.930;3.464;2024-02-23T13:20:41;10.90;79.50
42683;DHT22;28293;50.930;3.464;2024-02-23T13:23:09;10.80;78.60
42683;DHT22;28293;50.930;3.464;2024-02-23T13:25:35;10.80;77.70
42683;DHT22;28293;50.930;3.464;2024-02-23T13:28:02;11.00;77.30
42683;DHT22;28293;50.930;3.464;2024-02-23T13:30:28;11.10;76.70
42683;DHT22;28293;50.930;3.464;2024-02-23T13:32:54;11.10;76.40
42683;DHT22;28293;50.930;3.464;2024-02-23T13:35:20;10.90;76.80
42683;DHT22;28293;50.930;3.464;2024-02-23T13:37:46;10.80;77.20
42683;DHT22;28293;50.930;3.464;2024-02-23T13:40:11;11.00;78.30
42683;DHT22;28293;50.930;3.464;2024-02-23T13:42:37;11.00;78.20
42683;DHT22;28293;50.930;3.464;2024-02-23T13:45:07;11.10;77.00
42683;DHT22;28293;50.930;3.464;2024-02-23T13:47:37;11.10;76.40
42683;DHT22;28293;50.930;3.464;2024-02-23T13:50:02;11.10;75.80
42683;DHT22;28293;50.930;3.464;2024-02-23T13:52:28;11.10;76.50
42683;DHT22;28293;50.930;3.464;2024-02-23T13:54:54;11.10;76.30
42683;DHT22;28293;50.930;3.464;2024-02-23T13:57:20;11.00;76.00
42683;DHT22;28293;50.930;3.464;2024-02-23T13:59:45;10.70;76.20
42683;DHT22;28293;50.930;3.464;2024-02-23T14:02:12;10.50;77.70
42683;DHT22;28293;50.930;3.464;2024-02-23T14:04:37;10.30;78.00
42683;DHT22;28293;50.930;3.464;2024-02-23T14:07:03;10.10;78.30
42683;DHT22;28293;50.930;3.464;2024-02-23T14:09:30;9.80;79.20
42683;DHT22;28293;50.930;3.464;2024-02-23T14:11:57;9.60;80.10
42683;DHT22;28293;50.930;3.464;2024-02-23T14:14:22;9.40;80.80
42683;DHT22;28293;50.930;3.464;2024-02-23T14:16:49;9.10;81.70
42683;DHT22;28293;50.930;3.464;2024-02-23T14:19:14;9.00;82.50
42683;DHT22;28293;50.930;3.464;2024-02-23T14:21:40;9.00;82.50
42683;DHT22;28293;50.930;3.464;2024-02-23T14:24:06;9.00;83.50
42683;DHT22;28293;50.930;3.464;2024-02-23T14:26:31;9.10;84.20
42683;DHT22;28293;50.930;3.464;2024-02-23T14:28:58;9.40;85.00
42683;DHT22;28293;50.930;3.464;2024-02-23T14:31:25;9.80;83.90
42683;DHT22;28293;50.930;3.464;2024-02-23T14:33:51;9.90;82.00
42683;DHT22;28293;50.930;3.464;2024-02-23T14:36:18;10.00;81.80
42683;DHT22;28293;50.930;3.464;2024-02-23T14:38:43;10.00;81.10
42683;DHT22;28293;50.930;3.464;2024-02-23T14:41:09;10.00;81.00
42683;DHT22;28293;50.930;3.464;2024-02-23T14:43:37;10.10;81.10
42683;DHT22;28293;50.930;3.464;2024-02-23T14:46:03;10.10;80.80
42683;DHT22;28293;50.930;3.464;2024-02-23T14:48:29;10.10;81.20
42683;DHT22;28293;50.930;3.464;2024-02-23T14:50:54;10.10;80.60
42683;DHT22;28293;50.930;3.464;2024-02-23T14:53:20;9.90;80.90
42683;DHT22;28293;50.930;3.464;2024-02-23T14:55:46;9.90;81.60
42683;DHT22;28293;50.930;3.464;2024-02-23T14:58:12;9.90;82.00
42683;DHT22;28293;50.930;3.464;2024-02-23T15:00:37;10.00;81.90
42683;DHT22;28293;50.930;3.464;2024-02-23T15:03:03;10.10;82.10
42683;DHT22;28293;50.930;3.464;2024-02-23T15:05:29;10.00;82.00
42683;DHT22;28293;50.930;3.464;2024-02-23T15:07:55;9.90;82.00
42683;DHT22;28293;50.930;3.464;2024-02-23T15:10:21;9.90;82.10
42683;DHT22;28293;50.930;3.464;2024-02-23T15:12:46;9.90;82.30
42683;DHT22;28293;50.930;3.464;2024-02-23T15:15:12;9.80;82.50
42683;DHT22;28293;50.930;3.464;2024-02-23T15:17:39;9.80;82.30
42683;DHT22;28293;50.930;3.464;2024-02-23T15:20:07;9.80;82.60
42683;DHT22;28293;50.930;3.464;2024-02-23T15:22:34;9.80;82.80
42683;DHT22;28293;50.930;3.464;2024-02-23T15:24:59;10.00;82.80
42683;DHT22;28293;50.930;3.464;2024-02-23T15:27:25;10.10;82.60
42683;DHT22;28293;50.930;3.464;2024-02-23T15:29:51;10.20;82.30
42683;DHT22;28293;50.930;3.464;2024-02-23T15:32:17;10.10;81.10
42683;DHT22;28293;50.930;3.464;2024-02-23T15:34:43;9.90;80.50
42683;DHT22;28293;50.930;3.464;2024-02-23T15:37:08;9.70;80.00
42683;DHT22;28293;50.930;3.464;2024-02-23T15:39:34;9.60;80.00